sensor_id;sensor_type;location;lat;lon;timestamp;pressure;altitude;pressure_sealevel;temperature;humidity
71361;BME280;59166;48.908;1.870;2023-04-03T00:04:36;101399.78;;;6.40;98.52
71361;BME280;59166;48.908;1.870;2023-04-03T00:09:37;101402.06;;;6.43;98.69
71361;BME280;59166;48.908;1.870;2023-04-03T00:14:39;101400.63;;;6.41;98.52
71361;BME280;59166;48.908;1.870;2023-04-03T00:19:40;101406.03;;;6.47;97.46
71361;BME280;59166;48.908;1.870;2023-04-03T00:24:41;101396.13;;;6.48;97.50
71361;BME280;59166;48.908;1.870;2023-04-03T00:29:43;101390.34;;;6.51;96.31
71361;BME280;59166;48.908;1.870;2023-04-03T00:34:44;101393.19;;;6.43;96.86
71361;BME280;59166;48.908;1.870;2023-04-03T00:39:45;101385.97;;;6.37;96.79
71361;BME280;59166;48.908;1.870;2023-04-03T00:50:30;101390.72;;;6.41;97.33
71361;BME280;59166;48.908;1.870;2023-04-03T00:55:34;101383.69;;;6.34;97.12
71361;BME280;59166;48.908;1.870;2023-04-03T01:00:37;101371.31;;;6.33;97.19
71361;BME280;59166;48.908;1.870;2023-04-03T01:05:42;101373.38;;;6.31;97.78
71361;BME280;59166;48.908;1.870;2023-04-03T01:10:43;101373.56;;;6.22;97.55
71361;BME280;59166;48.908;1.870;2023-04-03T01:15:44;101378.09;;;6.22;97.96
71361;BME280;59166;48.908;1.870;2023-04-03T01:26:32;101379.13;;;6.14;100.00
71361;BME280;59166;48.908;1.870;2023-04-03T01:31:45;101376.44;;;6.14;99.55
71361;BME280;59166;48.908;1.870;2023-04-03T01:36:46;101370.28;;;6.20;99.88
71361;BME280;59166;48.908;1.870;2023-04-03T01:41:47;101372.72;;;6.15;100.00
71361;BME280;59166;48.908;1.870;2023-04-03T01:46:50;101364.69;;;6.15;100.00
71361;BME280;59166;48.908;1.870;2023-04-03T01:51:50;101366.53;;;6.15;100.00
71361;BME280;59166;48.908;1.870;2023-04-03T01:56:51;101371.47;;;6.05;100.00
71361;BME280;59166;48.908;1.870;2023-04-03T02:01:53;101371.47;;;6.05;100.00
71361;BME280;59166;48.908;1.870;2023-04-03T02:06:54;101366.53;;;6.08;99.98
71361;BME280;59166;48.908;1.870;2023-04-03T02:11:54;101365.09;;;6.12;100.00
71361;BME280;59166;48.908;1.870;2023-04-03T02:16:56;101372.94;;;6.07;100.00
71361;BME280;59166;48.908;1.870;2023-04-03T02:21:57;101361.38;;;6.07;99.36
71361;BME280;59166;48.908;1.870;2023-04-03T02:26:58;101388.22;;;6.07;97.91
71361;BME280;59166;48.908;1.870;2023-04-03T02:32:00;101381.16;;;5.93;96.82
71361;BME280;59166;48.908;1.870;2023-04-03T02:37:00;101384.88;;;5.85;97.32
71361;BME280;59166;48.908;1.870;2023-04-03T02:42:01;101380.94;;;5.94;98.87
71361;BME280;59166;48.908;1.870;2023-04-03T02:47:04;101375.59;;;6.01;97.20
71361;BME280;59166;48.908;1.870;2023-04-03T02:52:04;101383.19;;;5.84;97.13
71361;BME280;59166;48.908;1.870;2023-04-03T02:57:05;101372.47;;;5.84;97.89
71361;BME280;59166;48.908;1.870;2023-04-03T03:02:08;101372.06;;;5.81;96.01
71361;BME280;59166;48.908;1.870;2023-04-03T03:07:08;101373.31;;;5.85;96.19
71361;BME280;59166;48.908;1.870;2023-04-03T03:12:09;101373.31;;;5.91;94.02
71361;BME280;59166;48.908;1.870;2023-04-03T03:17:11;101366.50;;;5.75;92.28
71361;BME280;59166;48.908;1.870;2023-04-03T03:22:12;101370.59;;;5.71;93.00
71361;BME280;59166;48.908;1.870;2023-04-03T03:27:12;101366.25;;;5.70;92.47
71361;BME280;59166;48.908;1.870;2023-04-03T03:32:14;101365.22;;;5.65;92.20
71361;BME280;59166;48.908;1.870;2023-04-03T03:37:15;101366.25;;;5.70;91.14
71361;BME280;59166;48.908;1.870;2023-04-03T03:42:16;101373.06;;;5.66;92.22
71361;BME280;59166;48.908;1.870;2023-04-03T03:47:18;101373.25;;;5.65;91.10
71361;BME280;59166;48.908;1.870;2023-04-03T03:52:18;101372.00;;;5.61;90.09
71361;BME280;59166;48.908;1.870;2023-04-03T03:57:19;101370.75;;;5.57;91.47
71361;BME280;59166;48.908;1.870;2023-04-03T04:02:21;101379.00;;;5.55;89.02
71361;BME280;59166;48.908;1.870;2023-04-03T04:07:22;101368.06;;;5.57;89.09
71361;BME280;59166;48.908;1.870;2023-04-03T04:12:22;101370.16;;;5.61;87.29
71361;BME280;59166;48.908;1.870;2023-04-03T04:17:24;101369.13;;;5.62;87.80
71361;BME280;59166;48.908;1.870;2023-04-03T04:22:25;101368.72;;;5.65;88.59
71361;BME280;59166;48.908;1.870;2023-04-03T04:27:26;101364.19;;;5.59;88.27
71361;BME280;59166;48.908;1.870;2023-04-03T04:32:28;101363.53;;;5.57;87.95
71361;BME280;59166;48.908;1.870;2023-04-03T04:37:28;101357.75;;;5.54;88.57
71361;BME280;59166;48.908;1.870;2023-04-03T04:42:29;101359.22;;;5.56;89.43
71361;BME280;59166;48.908;1.870;2023-04-03T04:47:31;101356.34;;;5.58;88.14
71361;BME280;59166;48.908;1.870;2023-04-03T04:52:31;101361.66;;;5.45;87.17
71361;BME280;59166;48.908;1.870;2023-04-03T04:57:32;101351.34;;;5.48;87.19
71361;BME280;59166;48.908;1.870;2023-04-03T05:02:34;101355.88;;;5.48;85.14
71361;BME280;59166;48.908;1.870;2023-04-03T05:07:35;101353.00;;;5.43;85.41
71361;BME280;59166;48.908;1.870;2023-04-03T05:12:35;101360.38;;;5.34;85.30
71361;BME280;59166;48.908;1.870;2023-04-03T05:17:37;101359.94;;;5.31;86.19
71361;BME280;59166;48.908;1.870;2023-04-03T05:22:38;101360.75;;;5.24;84.63
71361;BME280;59166;48.908;1.870;2023-04-03T05:27:39;101367.94;;;5.24;84.93
71361;BME280;59166;48.908;1.870;2023-04-03T05:32:41;101368.81;;;5.31;85.90
71361;BME280;59166;48.908;1.870;2023-04-03T05:37:41;101366.09;;;5.24;84.30
71361;BME280;59166;48.908;1.870;2023-04-03T05:42:42;101371.25;;;5.19;83.96
71361;BME280;59166;48.908;1.870;2023-04-03T05:47:44;101365.63;;;5.08;82.98
71361;BME280;59166;48.908;1.870;2023-04-03T05:52:47;101373.94;;;5.19;82.39
71361;BME280;59166;48.908;1.870;2023-04-03T05:57:49;101365.22;;;5.11;82.19
71361;BME280;59166;48.908;1.870;2023-04-03T06:02:51;101373.50;;;5.16;81.92
71361;BME280;59166;48.908;1.870;2023-04-03T06:07:52;101377.38;;;5.13;81.50
71361;BME280;59166;48.908;1.870;2023-04-03T06:12:52;101378.84;;;5.16;83.30
71361;BME280;59166;48.908;1.870;2023-04-03T06:17:54;101376.22;;;5.29;81.83
71361;BME280;59166;48.908;1.870;2023-04-03T06:22:55;101376.03;;;5.31;80.26
71361;BME280;59166;48.908;1.870;2023-04-03T06:27:56;101378.47;;;5.19;79.92
71361;BME280;59166;48.908;1.870;2023-04-03T06:32:58;101376.38;;;5.21;79.85
71361;BME280;59166;48.908;1.870;2023-04-03T06:37:58;101385.69;;;5.25;81.70
71361;BME280;59166;48.908;1.870;2023-04-03T06:42:59;101384.75;;;5.46;77.47
71361;BME280;59166;48.908;1.870;2023-04-03T06:48:01;101376.91;;;5.51;77.68
71361;BME280;59166;48.908;1.870;2023-04-03T06:53:02;101369.13;;;5.62;78.52
71361;BME280;59166;48.908;1.870;2023-04-03T06:58:03;101378.63;;;5.71;77.00
71361;BME280;59166;48.908;1.870;2023-04-03T07:03:05;101377.81;;;5.71;78.34
71361;BME280;59166;48.908;1.870;2023-04-03T07:08:06;101387.75;;;5.77;76.27
71361;BME280;59166;48.908;1.870;2023-04-03T07:13:07;101391.69;;;5.94;75.21
71361;BME280;59166;48.908;1.870;2023-04-03T07:18:09;101388.63;;;5.97;75.21
71361;BME280;59166;48.908;1.870;2023-04-03T07:23:09;101388.97;;;5.81;75.73
71361;BME280;59166;48.908;1.870;2023-04-03T07:28:10;101389.41;;;5.98;76.56
71361;BME280;59166;48.908;1.870;2023-04-03T07:33:14;101387.56;;;5.98;75.08
71361;BME280;59166;48.908;1.870;2023-04-03T07:38:15;101400.78;;;6.06;74.89
71361;BME280;59166;48.908;1.870;2023-04-03T07:43:15;101394.97;;;5.83;74.00
71361;BME280;59166;48.908;1.870;2023-04-03T07:48:19;101401.75;;;5.79;74.77
71361;BME280;59166;48.908;1.870;2023-04-03T07:53:20;101400.97;;;5.92;75.81
71361;BME280;59166;48.908;1.870;2023-04-03T07:58:21;101405.75;;;6.16;74.21
71361;BME280;59166;48.908;1.870;2023-04-03T08:03:23;101400.00;;;6.52;74.55
71361;BME280;59166;48.908;1.870;2023-04-03T08:08:23;101399.81;;;6.53;72.44
71361;BME280;59166;48.908;1.870;2023-04-03T08:13:24;101398.56;;;6.75;73.33
71361;BME280;59166;48.908;1.870;2023-04-03T08:18:26;101397.28;;;7.04;71.21
71361;BME280;59166;48.908;1.870;2023-04-03T08:23:26;101401.34;;;7.20;72.09
71361;BME280;59166;48.908;1.870;2023-04-03T08:28:27;101395.03;;;7.59;70.88
71361;BME280;59166;48.908;1.870;2023-04-03T08:33:29;101391.47;;;7.65;68.60
71361;BME280;59166;48.908;1.870;2023-04-03T08:38:30;101388.38;;;7.99;69.25
71361;BME280;59166;48.908;1.870;2023-04-03T08:43:36;101395.38;;;8.07;66.71
71361;BME280;59166;48.908;1.870;2023-04-03T08:48:43;101394.47;;;7.82;66.79
71361;BME280;59166;48.908;1.870;2023-04-03T08:53:56;101389.03;;;7.50;68.60
71361;BME280;59166;48.908;1.870;2023-04-03T08:59:01;101386.16;;;7.90;68.96
71361;BME280;59166;48.908;1.870;2023-04-03T09:04:11;101393.22;;;7.84;64.23
71361;BME280;59166;48.908;1.870;2023-04-03T09:09:14;101392.75;;;7.94;66.71
71361;BME280;59166;48.908;1.870;2023-04-03T09:14:21;101394.94;;;8.10;66.30
71361;BME280;59166;48.908;1.870;2023-04-03T09:19:33;101383.59;;;9.18;64.27
71361;BME280;59166;48.908;1.870;2023-04-03T09:24:36;101382.53;;;10.15;60.68
71361;BME280;59166;48.908;1.870;2023-04-03T09:29:40;101389.53;;;9.27;59.57
71361;BME280;59166;48.908;1.870;2023-04-03T09:34:43;101384.56;;;9.60;60.14
71361;BME280;59166;48.908;1.870;2023-04-03T09:39:51;101393.81;;;9.35;60.44
71361;BME280;59166;48.908;1.870;2023-04-03T09:44:54;101393.03;;;9.09;59.50
71361;BME280;59166;48.908;1.870;2023-04-03T09:50:18;101387.69;;;10.05;59.47
71361;BME280;59166;48.908;1.870;2023-04-03T09:55:21;101378.97;;;10.56;55.68
71361;BME280;59166;48.908;1.870;2023-04-03T10:00:25;101387.00;;;10.21;58.20
71361;BME280;59166;48.908;1.870;2023-04-03T10:05:31;101386.03;;;9.74;58.33
71361;BME280;59166;48.908;1.870;2023-04-03T10:10:32;101376.50;;;10.02;58.17
71361;BME280;59166;48.908;1.870;2023-04-03T10:15:36;101382.09;;;9.59;57.30
71361;BME280;59166;48.908;1.870;2023-04-03T10:20:43;101371.63;;;9.51;58.46
71361;BME280;59166;48.908;1.870;2023-04-03T10:25:52;101376.91;;;9.75;57.03
71361;BME280;59166;48.908;1.870;2023-04-03T10:30:59;101373.75;;;9.90;57.43
71361;BME280;59166;48.908;1.870;2023-04-03T10:36:10;101376.22;;;10.21;56.75
71361;BME280;59166;48.908;1.870;2023-04-03T10:41:16;101365.75;;;10.25;57.23
71361;BME280;59166;48.908;1.870;2023-04-03T10:46:23;101358.50;;;10.49;56.60
71361;BME280;59166;48.908;1.870;2023-04-03T10:51:33;101345.97;;;10.89;56.61
71361;BME280;59166;48.908;1.870;2023-04-03T10:56:40;101336.31;;;10.70;54.30
71361;BME280;59166;48.908;1.870;2023-04-03T11:01:44;101341.81;;;10.28;55.02
71361;BME280;59166;48.908;1.870;2023-04-03T11:06:49;101332.44;;;10.66;54.32
71361;BME280;59166;48.908;1.870;2023-04-03T11:11:54;101321.28;;;10.62;55.28
71361;BME280;59166;48.908;1.870;2023-04-03T11:17:04;101324.59;;;10.76;53.86
71361;BME280;59166;48.908;1.870;2023-04-03T11:22:16;101316.56;;;10.34;55.14
71361;BME280;59166;48.908;1.870;2023-04-03T11:27:19;101314.94;;;10.57;54.70
71361;BME280;59166;48.908;1.870;2023-04-03T11:32:33;101315.06;;;11.25;54.66
71361;BME280;59166;48.908;1.870;2023-04-03T11:37:42;101306.47;;;11.28;52.16
71361;BME280;59166;48.908;1.870;2023-04-03T11:42:47;101306.75;;;11.55;53.57
71361;BME280;59166;48.908;1.870;2023-04-03T11:47:49;101301.06;;;11.84;54.85
71361;BME280;59166;48.908;1.870;2023-04-03T11:53:00;101289.59;;;11.94;51.54
71361;BME280;59166;48.908;1.870;2023-04-03T11:58:12;101291.41;;;11.88;47.84
71361;BME280;59166;48.908;1.870;2023-04-03T12:08:53;101259.84;;;11.66;50.67
71361;BME280;59166;48.908;1.870;2023-04-03T12:14:04;101274.97;;;11.78;50.58
71361;BME280;59166;48.908;1.870;2023-04-03T12:19:30;101269.09;;;11.98;49.59
71361;BME280;59166;48.908;1.870;2023-04-03T12:24:33;101265.28;;;11.99;46.85
71361;BME280;59166;48.908;1.870;2023-04-03T12:29:38;101259.56;;;12.46;46.26
71361;BME280;59166;48.908;1.870;2023-04-03T12:34:54;101266.41;;;12.53;47.00
71361;BME280;59166;48.908;1.870;2023-04-03T12:40:07;101263.31;;;12.83;44.08
71361;BME280;59166;48.908;1.870;2023-04-03T12:45:17;101253.59;;;12.65;43.52
71361;BME280;59166;48.908;1.870;2023-04-03T12:50:22;101249.19;;;12.59;45.41
71361;BME280;59166;48.908;1.870;2023-04-03T12:55:25;101240.22;;;12.59;42.93
71361;BME280;59166;48.908;1.870;2023-04-03T13:00:33;101231.00;;;12.60;45.45
71361;BME280;59166;48.908;1.870;2023-04-03T13:05:41;101229.53;;;13.17;43.54
71361;BME280;59166;48.908;1.870;2023-04-03T13:10:52;101223.72;;;13.30;43.82
71361;BME280;59166;48.908;1.870;2023-04-03T13:15:59;101218.88;;;13.37;44.68
71361;BME280;59166;48.908;1.870;2023-04-03T13:21:04;101217.16;;;13.53;42.82
71361;BME280;59166;48.908;1.870;2023-04-03T13:26:07;101214.16;;;13.23;42.26
71361;BME280;59166;48.908;1.870;2023-04-03T13:31:18;101204.41;;;13.00;43.39
71361;BME280;59166;48.908;1.870;2023-04-03T13:36:22;101206.75;;;13.45;41.08
71361;BME280;59166;48.908;1.870;2023-04-03T13:41:29;101209.03;;;13.26;41.84
71361;BME280;59166;48.908;1.870;2023-04-03T13:46:31;101209.31;;;13.57;42.41
71361;BME280;59166;48.908;1.870;2023-04-03T13:51:32;101198.25;;;13.63;41.15
71361;BME280;59166;48.908;1.870;2023-04-03T13:56:36;101189.91;;;13.70;42.33
71361;BME280;59166;48.908;1.870;2023-04-03T14:01:43;101188.25;;;13.69;41.98
71361;BME280;59166;48.908;1.870;2023-04-03T14:06:48;101190.59;;;13.87;42.91
71361;BME280;59166;48.908;1.870;2023-04-03T14:11:57;101178.75;;;14.03;40.58
71361;BME280;59166;48.908;1.870;2023-04-03T14:17:03;101170.28;;;13.95;41.30
71361;BME280;59166;48.908;1.870;2023-04-03T14:22:13;101170.28;;;13.95;41.58
71361;BME280;59166;48.908;1.870;2023-04-03T14:27:22;101162.84;;;13.80;40.84
71361;BME280;59166;48.908;1.870;2023-04-03T14:32:25;101165.09;;;13.61;40.66
71361;BME280;59166;48.908;1.870;2023-04-03T14:37:28;101164.31;;;13.66;41.01
71361;BME280;59166;48.908;1.870;2023-04-03T14:42:33;101151.28;;;13.95;38.39
71361;BME280;59166;48.908;1.870;2023-04-03T14:47:38;101146.84;;;13.88;41.94
71361;BME280;59166;48.908;1.870;2023-04-03T14:52:40;101143.53;;;13.76;41.66
71361;BME280;59166;48.908;1.870;2023-04-03T14:57:43;101141.84;;;14.07;41.76
71361;BME280;59166;48.908;1.870;2023-04-03T15:02:45;101128.44;;;13.96;40.38
71361;BME280;59166;48.908;1.870;2023-04-03T15:07:48;101125.19;;;13.94;41.34
71361;BME280;59166;48.908;1.870;2023-04-03T15:12:52;101121.63;;;13.88;42.04
71361;BME280;59166;48.908;1.870;2023-04-03T15:17:54;101130.97;;;14.12;41.22
71361;BME280;59166;48.908;1.870;2023-04-03T15:22:56;101121.84;;;13.50;40.39
71361;BME280;59166;48.908;1.870;2023-04-03T15:27:58;101124.66;;;13.65;41.22
71361;BME280;59166;48.908;1.870;2023-04-03T15:33:02;101119.09;;;13.76;41.66
71361;BME280;59166;48.908;1.870;2023-04-03T15:38:07;101129.19;;;13.86;43.86
71361;BME280;59166;48.908;1.870;2023-04-03T15:43:10;101137.47;;;14.01;43.59
71361;BME280;59166;48.908;1.870;2023-04-03T15:48:12;101139.19;;;14.17;44.17
71361;BME280;59166;48.908;1.870;2023-04-03T15:53:13;101131.38;;;13.84;43.48
71361;BME280;59166;48.908;1.870;2023-04-03T15:58:18;101128.19;;;13.65;43.64
71361;BME280;59166;48.908;1.870;2023-04-03T16:03:21;101134.16;;;13.62;44.19
71361;BME280;59166;48.908;1.870;2023-04-03T16:08:24;101133.44;;;13.72;44.48
71361;BME280;59166;48.908;1.870;2023-04-03T16:13:27;101127.91;;;13.94;45.24
71361;BME280;59166;48.908;1.870;2023-04-03T16:18:29;101124.06;;;13.89;43.75
71361;BME280;59166;48.908;1.870;2023-04-03T16:23:30;101121.03;;;13.86;43.90
71361;BME280;59166;48.908;1.870;2023-04-03T16:28:33;101113.25;;;13.95;44.65
71361;BME280;59166;48.908;1.870;2023-04-03T16:33:34;101114.09;;;13.63;44.41
71361;BME280;59166;48.908;1.870;2023-04-03T16:38:36;101114.91;;;13.64;45.44
71361;BME280;59166;48.908;1.870;2023-04-03T16:43:39;101110.97;;;13.18;44.58
71361;BME280;59166;48.908;1.870;2023-04-03T16:48:40;101116.72;;;13.21;45.83
71361;BME280;59166;48.908;1.870;2023-04-03T16:53:41;101112.84;;;13.12;45.60
71361;BME280;59166;48.908;1.870;2023-04-03T16:58:43;101115.28;;;12.87;46.38
71361;BME280;59166;48.908;1.870;2023-04-03T17:03:44;101119.28;;;12.53;47.70
71361;BME280;59166;48.908;1.870;2023-04-03T17:08:47;101117.94;;;12.33;48.58
71361;BME280;59166;48.908;1.870;2023-04-03T17:13:50;101114.69;;;12.15;47.89
71361;BME280;59166;48.908;1.870;2023-04-03T17:18:52;101117.16;;;11.78;49.79
71361;BME280;59166;48.908;1.870;2023-04-03T17:23:57;101118.75;;;11.79;49.03
71361;BME280;59166;48.908;1.870;2023-04-03T17:29:00;101109.28;;;11.60;49.78
71361;BME280;59166;48.908;1.870;2023-04-03T17:34:02;101104.78;;;11.49;49.98
71361;BME280;59166;48.908;1.870;2023-04-03T17:39:03;101102.91;;;11.32;49.84
71361;BME280;59166;48.908;1.870;2023-04-03T17:44:06;101115.38;;;11.33;51.36
71361;BME280;59166;48.908;1.870;2023-04-03T17:49:07;101116.84;;;11.24;51.15
71361;BME280;59166;48.908;1.870;2023-04-03T17:54:08;101106.41;;;11.16;52.09
71361;BME280;59166;48.908;1.870;2023-04-03T17:59:11;101106.09;;;11.13;51.26
71361;BME280;59166;48.908;1.870;2023-04-03T18:04:13;101108.44;;;10.93;52.42
71361;BME280;59166;48.908;1.870;2023-04-03T18:09:16;101112.34;;;10.85;53.45
71361;BME280;59166;48.908;1.870;2023-04-03T18:14:21;101118.22;;;10.82;54.01
71361;BME280;59166;48.908;1.870;2023-04-03T18:19:23;101113.09;;;10.69;54.20
71361;BME280;59166;48.908;1.870;2023-04-03T18:24:25;101110.19;;;10.59;54.60
71361;BME280;59166;48.908;1.870;2023-04-03T18:29:29;101112.69;;;10.49;56.39
71361;BME280;59166;48.908;1.870;2023-04-03T18:34:31;101121.69;;;10.26;57.20
71361;BME280;59166;48.908;1.870;2023-04-03T18:39:32;101125.44;;;10.13;57.57
71361;BME280;59166;48.908;1.870;2023-04-03T18:44:36;101111.16;;;9.90;58.83
71361;BME280;59166;48.908;1.870;2023-04-03T18:49:39;101126.66;;;9.71;60.46
71361;BME280;59166;48.908;1.870;2023-04-03T18:54:47;101124.75;;;9.60;60.97
71361;BME280;59166;48.908;1.870;2023-04-03T18:59:50;101135.91;;;9.52;59.23
71361;BME280;59166;48.908;1.870;2023-04-03T19:04:56;101132.50;;;9.45;61.24
71361;BME280;59166;48.908;1.870;2023-04-03T19:09:56;101145.94;;;9.21;62.71
71361;BME280;59166;48.908;1.870;2023-04-03T19:14:59;101143.41;;;8.97;63.73
71361;BME280;59166;48.908;1.870;2023-04-03T19:20:00;101140.13;;;8.95;63.09
71361;BME280;59166;48.908;1.870;2023-04-03T19:25:01;101152.31;;;8.79;64.22
71361;BME280;59166;48.908;1.870;2023-04-03T19:30:05;101163.13;;;8.61;64.88
71361;BME280;59166;48.908;1.870;2023-04-03T19:35:07;101163.72;;;8.45;66.22
71361;BME280;59166;48.908;1.870;2023-04-03T19:40:09;101168.97;;;8.40;65.69
71361;BME280;59166;48.908;1.870;2023-04-03T19:45:12;101164.34;;;8.28;66.82
71361;BME280;59166;48.908;1.870;2023-04-03T19:50:13;101165.81;;;8.24;66.58
71361;BME280;59166;48.908;1.870;2023-04-03T19:55:14;101166.44;;;8.26;66.21
71361;BME280;59166;48.908;1.870;2023-04-03T20:00:18;101164.94;;;8.12;66.98
71361;BME280;59166;48.908;1.870;2023-04-03T20:05:19;101169.34;;;8.25;63.43
71361;BME280;59166;48.908;1.870;2023-04-03T20:10:20;101164.19;;;8.23;65.27
71361;BME280;59166;48.908;1.870;2023-04-03T20:15:23;101179.44;;;8.29;63.37
71361;BME280;59166;48.908;1.870;2023-04-03T20:20:24;101180.09;;;8.25;64.32
71361;BME280;59166;48.908;1.870;2023-04-03T20:25:25;101187.34;;;8.24;63.26
71361;BME280;59166;48.908;1.870;2023-04-03T20:30:27;101192.88;;;8.11;65.21
71361;BME280;59166;48.908;1.870;2023-04-03T20:35:31;101183.91;;;7.99;64.99
71361;BME280;59166;48.908;1.870;2023-04-03T20:40:42;101192.31;;;7.85;65.65
71361;BME280;59166;48.908;1.870;2023-04-03T20:45:52;101188.34;;;7.87;65.05
71361;BME280;59166;48.908;1.870;2023-04-03T20:50:53;101183.53;;;7.71;66.10
71361;BME280;59166;48.908;1.870;2023-04-03T20:55:55;101187.81;;;7.54;66.74
71361;BME280;59166;48.908;1.870;2023-04-03T21:00:58;101191.19;;;7.43;65.76
71361;BME280;59166;48.908;1.870;2023-04-03T21:21:39;101179.91;;;6.96;67.47
71361;BME280;59166;48.908;1.870;2023-04-03T21:26:40;101179.31;;;6.94;67.46
71361;BME280;59166;48.908;1.870;2023-04-03T21:31:49;101182.44;;;6.91;66.52
71361;BME280;59166;48.908;1.870;2023-04-03T21:36:52;101175.47;;;6.77;67.97
71361;BME280;59166;48.908;1.870;2023-04-03T21:41:54;101169.16;;;6.65;67.76
71361;BME280;59166;48.908;1.870;2023-04-03T21:46:55;101174.53;;;6.45;69.41
71361;BME280;59166;48.908;1.870;2023-04-03T21:51:57;101176.44;;;6.32;70.12
71361;BME280;59166;48.908;1.870;2023-04-03T21:56:58;101179.38;;;6.23;70.85
71361;BME280;59166;48.908;1.870;2023-04-03T22:02:00;101182.28;;;6.15;70.85
71361;BME280;59166;48.908;1.870;2023-04-03T22:07:03;101184.13;;;6.15;70.29
71361;BME280;59166;48.908;1.870;2023-04-03T22:12:04;101190.56;;;6.07;70.60
71361;BME280;59166;48.908;1.870;2023-04-03T22:17:05;101182.31;;;6.02;71.92
71361;BME280;59166;48.908;1.870;2023-04-03T22:22:07;101179.84;;;6.07;70.48
71361;BME280;59166;48.908;1.870;2023-04-03T22:27:08;101182.69;;;6.12;69.83
71361;BME280;59166;48.908;1.870;2023-04-03T22:32:09;101185.56;;;6.11;69.51
71361;BME280;59166;48.908;1.870;2023-04-03T22:37:12;101184.38;;;6.07;69.85
71361;BME280;59166;48.908;1.870;2023-04-03T22:42:12;101191.34;;;6.08;70.14
71361;BME280;59166;48.908;1.870;2023-04-03T22:47:13;101188.09;;;5.99;70.80
71361;BME280;59166;48.908;1.870;2023-04-03T22:52:17;101180.25;;;5.78;73.06
71361;BME280;59166;48.908;1.870;2023-04-03T22:57:18;101184.38;;;5.74;71.64
71361;BME280;59166;48.908;1.870;2023-04-03T23:02:19;101184.00;;;5.77;71.11
71361;BME280;59166;48.908;1.870;2023-04-03T23:07:22;101191.81;;;5.72;71.48
71361;BME280;59166;48.908;1.870;2023-04-03T23:12:23;101193.25;;;5.68;71.85
71361;BME280;59166;48.908;1.870;2023-04-03T23:17:23;101196.97;;;5.60;72.64
71361;BME280;59166;48.908;1.870;2023-04-03T23:22:25;101197.38;;;5.51;72.93
71361;BME280;59166;48.908;1.870;2023-04-03T23:27:26;101200.69;;;5.46;74.20
71361;BME280;59166;48.908;1.870;2023-04-03T23:32:27;101205.81;;;5.41;74.30
71361;BME280;59166;48.908;1.870;2023-04-03T23:37:30;101209.50;;;5.34;74.52
71361;BME280;59166;48.908;1.870;2023-04-03T23:42:31;101213.66;;;5.30;74.74
71361;BME280;59166;48.908;1.870;2023-04-03T23:47:31;101225.41;;;5.35;74.81
71361;BME280;59166;48.908;1.870;2023-04-03T23:52:33;101228.91;;;5.29;74.63
71361;BME280;59166;48.908;1.870;2023-04-03T23:57:34;101229.75;;;5.36;74.63
